F/V Jeremi Simon — FHAF — position and weather

sailwx.info

Track history (hours):
 
Tides and Currents Weather Stations Pressure Air Temp Water Temp Dewpoint Dewpoint Depression Visibility Wind Speed Wind Dir Waves Ship Positions

F/V Jeremi Simon

Last reported at 2014-Jul-28 22:31 UTC. Time now 2014-Jul-28 22:38 UTC.
Position N 46°35' W 002°13'.

Length 20 m.

Type: Other ship. MMSI: 227415000.

Date/timePositionNaut miles runAvg speedWind from/ knotsBaromVisibWave heightAir tempDewpointWater temp
2014-Jul-28 22:31N 46°35' W 002°13'37 1.2
2014-Jul-27 16:04N 46°55' W 003°00'1 1.8
2014-Jul-27 15:23N 46°55' W 002°59'6 7.4
2014-Jul-27 14:30N 46°50' W 002°52'18 1.8
2014-Jul-27 04:28N 46°46' W 002°26'8 8.8
2014-Jul-27 03:33N 46°44' W 002°15'9 9.1
2014-Jul-27 02:33N 46°42' W 002°02'4 0.1
2014-Jul-25 00:07N 46°42' W 001°57'0 0.0
2014-Jul-24 23:33N 46°42' W 001°57'1 1.1
2014-Jul-24 22:33N 46°41' W 001°58'3 3.1
2014-Jul-24 21:33N 46°42' W 002°02'8 6.6
2014-Jul-24 20:19N 46°44' W 002°13'29 2.0
2014-Jul-24 06:21N 46°45' W 002°55'4 4.4
2014-Jul-24 05:32N 46°43' W 002°50'1 1.0
2014-Jul-24 04:33N 46°44' W 002°49'7 7.1
2014-Jul-24 03:33N 46°44' W 002°39'10 9.8
2014-Jul-24 02:33N 46°45' W 002°25'9 9.5
2014-Jul-24 01:33N 46°44' W 002°11'9 9.5
2014-Jul-24 00:33N 46°41' W 001°58'1 0.9
2014-Jul-23 23:33N 46°42' W 001°57'0 0.0
2014-Jul-23 22:33N 46°42' W 001°57'2 2.4
2014-Jul-23 21:33N 46°40' W 001°58'0 0.5
2014-Jul-23 20:33N 46°40' W 001°58'6 6.0
2014-Jul-23 19:33N 46°42' W 002°06'3 0.2
2014-Jul-23 03:33N 46°43' W 002°10'9 9.2
2014-Jul-23 02:33N 46°42' W 001°57'0 0.4
2014-Jul-23 01:33N 46°42' W 001°57'0 0.0
2014-Jul-22 21:33N 46°42' W 001°57'0 0.0
2014-Jul-22 18:33N 46°42' W 001°57'0 0.0
2014-Jul-22 17:34N 46°42' W 001°57'0 0.0
2014-Jul-22 16:33N 46°42' W 001°57'0 0.0
2014-Jul-22 13:08N 46°42' W 001°57'0 0.0
2014-Jul-22 12:34N 46°42' W 001°57'0 0.0
2014-Jul-22 10:33N 46°42' W 001°57'1 0.6
2014-Jul-22 09:34N 46°41' W 001°57'1 0.6
2014-Jul-22 08:34N 46°42' W 001°57'0 0.0
2014-Jul-22 07:34N 46°42' W 001°57'0 0.0
2014-Jul-22 06:33N 46°42' W 001°57'0 0.0
2014-Jul-22 05:34N 46°42' W 001°57'0 0.0
2014-Jul-22 04:33N 46°42' W 001°57'0 0.0
2014-Jul-22 03:33N 46°42' W 001°57'0 0.0
2014-Jul-22 02:34N 46°42' W 001°57'0 0.0
2014-Jul-22 01:33N 46°42' W 001°57'0 0.0
2014-Jul-22 00:34N 46°42' W 001°57'0 0.1
2014-Jul-21 23:34N 46°42' W 001°57'0 0.0
2014-Jul-21 22:34N 46°42' W 001°57'4 4.4
2014-Jul-21 21:34N 46°40' W 002°02'12 9.4
2014-Jul-21 20:17N 46°36' W 002°19'  
Track history (hours):
 
Tides and Currents Weather Stations Pressure Air Temp Water Temp Dewpoint Dewpoint Depression Visibility Wind Speed Wind Dir Waves Ship Positions

F/V Jeremi Simon

Last reported at 2014-Jul-28 22:31 UTC. Time now 2014-Jul-28 22:38 UTC.
Position N 46°35' W 002°13'.

Length 20 m.

Type: Other ship. MMSI: 227415000.

Date/timePositionNaut miles runAvg speedWind from/ knotsBaromVisibWave heightAir tempDewpointWater temp
2014-Jul-28 22:31N 46°35' W 002°13'37 1.2
2014-Jul-27 16:04N 46°55' W 003°00'1 1.8
2014-Jul-27 15:23N 46°55' W 002°59'6 7.4
2014-Jul-27 14:30N 46°50' W 002°52'18 1.8
2014-Jul-27 04:28N 46°46' W 002°26'8 8.8
2014-Jul-27 03:33N 46°44' W 002°15'9 9.1
2014-Jul-27 02:33N 46°42' W 002°02'4 0.1
2014-Jul-25 00:07N 46°42' W 001°57'0 0.0
2014-Jul-24 23:33N 46°42' W 001°57'1 1.1
2014-Jul-24 22:33N 46°41' W 001°58'3 3.1
2014-Jul-24 21:33N 46°42' W 002°02'8 6.6
2014-Jul-24 20:19N 46°44' W 002°13'29 2.0
2014-Jul-24 06:21N 46°45' W 002°55'4 4.4
2014-Jul-24 05:32N 46°43' W 002°50'1 1.0
2014-Jul-24 04:33N 46°44' W 002°49'7 7.1
2014-Jul-24 03:33N 46°44' W 002°39'10 9.8
2014-Jul-24 02:33N 46°45' W 002°25'9 9.5
2014-Jul-24 01:33N 46°44' W 002°11'9 9.5
2014-Jul-24 00:33N 46°41' W 001°58'1 0.9
2014-Jul-23 23:33N 46°42' W 001°57'0 0.0
2014-Jul-23 22:33N 46°42' W 001°57'2 2.4
2014-Jul-23 21:33N 46°40' W 001°58'0 0.5
2014-Jul-23 20:33N 46°40' W 001°58'6 6.0
2014-Jul-23 19:33N 46°42' W 002°06'3 0.2
2014-Jul-23 03:33N 46°43' W 002°10'9 9.2
2014-Jul-23 02:33N 46°42' W 001°57'0 0.4
2014-Jul-23 01:33N 46°42' W 001°57'0 0.0
2014-Jul-22 21:33N 46°42' W 001°57'0 0.0
2014-Jul-22 18:33N 46°42' W 001°57'0 0.0
2014-Jul-22 17:34N 46°42' W 001°57'0 0.0
2014-Jul-22 16:33N 46°42' W 001°57'0 0.0
2014-Jul-22 13:08N 46°42' W 001°57'0 0.0
2014-Jul-22 12:34N 46°42' W 001°57'0 0.0
2014-Jul-22 10:33N 46°42' W 001°57'1 0.6
2014-Jul-22 09:34N 46°41' W 001°57'1 0.6
2014-Jul-22 08:34N 46°42' W 001°57'0 0.0
2014-Jul-22 07:34N 46°42' W 001°57'0 0.0
2014-Jul-22 06:33N 46°42' W 001°57'0 0.0
2014-Jul-22 05:34N 46°42' W 001°57'0 0.0
2014-Jul-22 04:33N 46°42' W 001°57'0 0.0
2014-Jul-22 03:33N 46°42' W 001°57'0 0.0
2014-Jul-22 02:34N 46°42' W 001°57'0 0.0
2014-Jul-22 01:33N 46°42' W 001°57'0 0.0
2014-Jul-22 00:34N 46°42' W 001°57'0 0.1
2014-Jul-21 23:34N 46°42' W 001°57'0 0.0
2014-Jul-21 22:34N 46°42' W 001°57'4 4.4
2014-Jul-21 21:34N 46°40' W 002°02'12 9.4
2014-Jul-21 20:17N 46°36' W 002°19'  

Dump ship's entire track history